createdAt,value
2023-03-23T15:57:58.352Z,8.41
2023-03-23T16:01:28.048Z,8.45
2023-03-23T16:04:37.540Z,8.49
2023-03-23T16:07:40.847Z,8.52
2023-03-23T16:11:18.223Z,8.56
2023-03-23T16:14:49.544Z,8.62
2023-03-23T16:18:15.387Z,8.68
2023-03-23T16:21:47.444Z,8.76
2023-03-23T16:24:55.922Z,8.81
2023-03-23T16:28:17.890Z,8.82
2023-03-23T16:31:47.014Z,8.83
2023-03-23T16:35:18.974Z,8.82
2023-03-23T16:38:49.855Z,8.77
2023-03-23T16:42:20.603Z,8.74
2023-03-23T16:45:42.377Z,8.73
2023-03-23T16:49:13.064Z,8.71
2023-03-23T16:52:46.158Z,8.69
2023-03-23T16:56:15.761Z,8.69
2023-03-23T16:59:44.784Z,8.69
2023-03-23T17:03:13.694Z,8.69
2023-03-23T17:06:24.667Z,8.70
2023-03-23T17:09:54.116Z,8.70
2023-03-23T17:13:05.413Z,8.68
2023-03-23T17:16:14.798Z,8.68
2023-03-23T17:19:28.032Z,8.69
2023-03-23T17:22:47.751Z,8.70
2023-03-23T17:26:08.018Z,8.71
2023-03-23T17:29:12.159Z,8.72
2023-03-23T17:32:25.610Z,8.73
2023-03-23T17:35:17.889Z,8.72
2023-03-23T17:38:37.755Z,8.71
2023-03-23T17:41:59.608Z,8.71
2023-03-23T17:45:21.897Z,8.72
2023-03-23T17:48:45.827Z,8.71
2023-03-23T17:52:08.073Z,8.68
2023-03-23T17:55:25.618Z,8.66
2023-03-23T17:58:43.226Z,8.70
2023-03-23T18:02:12.605Z,8.74
2023-03-23T18:05:41.777Z,8.81
2023-03-23T18:09:11.105Z,8.88
2023-03-23T18:12:40.228Z,8.91
2023-03-23T18:16:09.820Z,8.97
2023-03-23T18:19:23.320Z,9.04
2023-03-23T18:22:24.903Z,9.11
2023-03-23T18:25:34.340Z,9.18
2023-03-23T18:29:05.884Z,9.22
2023-03-23T18:32:35.010Z,9.29
2023-03-23T18:35:55.756Z,9.34
2023-03-23T18:39:16.153Z,9.40
2023-03-23T18:42:45.510Z,9.46
2023-03-23T18:46:14.500Z,9.51
2023-03-23T18:49:35.411Z,9.57
2023-03-23T18:53:00.701Z,9.63
2023-03-23T18:56:30.137Z,9.69
2023-03-23T18:59:59.349Z,9.75
2023-03-23T19:04:07.451Z,9.81
2023-03-23T19:06:39.118Z,9.88
2023-03-23T19:09:40.717Z,9.93
2023-03-23T19:12:49.850Z,10.01
2023-03-23T19:16:22.453Z,10.06
2023-03-23T19:20:07.173Z,10.10
2023-03-23T19:23:17.094Z,10.14
2023-03-23T19:26:46.501Z,10.11
2023-03-23T19:30:16.079Z,10.09
2023-03-23T19:33:45.116Z,10.07
2023-03-23T19:37:11.468Z,10.01
2023-03-23T19:40:40.222Z,9.96
2023-03-23T19:44:11.490Z,9.91
2023-03-23T19:47:12.236Z,9.86
2023-03-23T19:50:42.502Z,9.81
2023-03-23T19:53:37.464Z,9.73
2023-03-23T19:57:07.139Z,9.66
2023-03-23T20:00:27.551Z,9.57
2023-03-23T20:03:47.330Z,9.51
2023-03-23T20:07:02.802Z,9.47
2023-03-23T20:10:16.194Z,9.45
2023-03-23T20:13:26.937Z,9.47
2023-03-23T20:16:39.724Z,9.48
2023-03-23T20:19:50.926Z,9.50
2023-03-23T20:23:09.108Z,9.49
2023-03-23T20:26:21.355Z,9.50
2023-03-23T20:29:33.588Z,9.54
2023-03-23T20:33:01.866Z,9.58
2023-03-23T20:36:30.910Z,9.61
2023-03-23T20:39:46.803Z,9.66
2023-03-23T20:42:49.496Z,9.70
2023-03-23T20:46:18.570Z,9.72
2023-03-23T20:49:53.307Z,9.76
2023-03-23T20:53:15.411Z,9.82
2023-03-23T20:56:07.819Z,9.89
2023-03-23T20:59:27.119Z,9.92
2023-03-23T21:02:28.519Z,9.96
2023-03-23T21:05:57.646Z,9.98
2023-03-23T21:09:26.746Z,9.94
2023-03-23T21:12:54.965Z,9.88
2023-03-23T21:16:22.947Z,9.74
2023-03-23T21:19:26.396Z,9.66
2023-03-23T21:22:55.695Z,9.57
2023-03-23T21:26:26.867Z,9.53
2023-03-23T21:29:55.319Z,9.49
2023-03-23T21:33:17.681Z,9.41
2023-03-23T21:36:29.280Z,9.34
2023-03-23T21:39:59.162Z,9.34
2023-03-23T21:43:28.143Z,9.34
2023-03-23T21:46:56.945Z,9.35
2023-03-23T21:50:19.259Z,9.38
2023-03-23T21:53:47.926Z,9.39
2023-03-23T21:56:16.639Z,9.39
2023-03-23T21:59:43.934Z,9.43
2023-03-23T22:02:44.608Z,9.46
2023-03-23T22:06:16.888Z,9.49
2023-03-23T22:09:46.291Z,9.48
2023-03-23T22:13:15.916Z,9.43
2023-03-23T22:16:45.575Z,9.39
2023-03-23T22:20:14.660Z,9.35
2023-03-23T22:23:43.845Z,9.31
2023-03-23T22:27:06.298Z,9.31
2023-03-23T22:30:35.707Z,9.29
2023-03-23T22:33:58.169Z,9.25
2023-03-23T22:37:49.370Z,9.18
2023-03-23T22:40:44.133Z,9.14
2023-03-23T22:44:11.996Z,9.11
2023-03-23T22:47:40.852Z,9.09
2023-03-23T22:51:09.830Z,9.09
2023-03-23T22:54:39.417Z,9.10
2023-03-23T22:58:08.821Z,9.14
2023-03-23T23:01:30.212Z,9.15
2023-03-23T23:04:59.537Z,9.13
2023-03-23T23:08:28.383Z,9.11
2023-03-23T23:11:57.707Z,9.11
2023-03-23T23:15:26.881Z,9.10
2023-03-23T23:18:56.147Z,9.08
2023-03-23T23:22:25.629Z,9.03
2023-03-23T23:25:55.143Z,9.01
2023-03-23T23:29:23.814Z,9.03
2023-03-23T23:32:54.369Z,9.05
2023-03-23T23:36:23.675Z,9.05
2023-03-23T23:39:53.040Z,9.11
2023-03-23T23:43:25.715Z,9.16
2023-03-23T23:46:54.196Z,9.24
2023-03-23T23:50:26.160Z,9.31
2023-03-23T23:53:55.545Z,9.35
2023-03-23T23:57:24.946Z,9.39
